Strona główna
METAR-TAF:

METAR-TAF

Lotnisko :

Port lotniczy Saint-Brieuc - Armor

Saint-Brieuc, Francja

Szerokość geograficzna: 48-32N, Długość geograficzna: 002-51W, wysokość: 138 m

Aktualna obserwacja pogody

Raport powstał 6 godziny i 15 minut temu, godzina 22:00 UTC
Wiatr 7 kt od zachód
Temperatura 8°C
Wilgotność 100%
Ciśnienie 1013 hPa
Widzialność 10 km lub więcej
słaby deszcz

METAR: LFRT 102200Z AUTO 27007KT 9999 -RA FEW030/// OVC068/// ///CB 08/08 Q1013

czas: 05:15 (04:15 UTC)


TAF: brakujący

Obserwacja i prognoza pogody dla ponad 4000 lotnisk (raport METAR i TAF).

Dostępne stacje oznaczono żółtymi i czerwonymi punktami na mapie.

Najedź kursorem aby zobaczyć nazwę stacji.

Kliknij aby zobaczyć obserwacje i prognozy pogody.

Aby zmienić mapę: kliknij na zielony przycisk z czarnym krzyżykiem, aby powiększyć; na zielony przycisk z myślnikiem, aby pomniejszyć; na zielone strzałki, aby przejść do map sąsiednich.


METAR-TAF: